Weather at Rambam Heliport

Public forecast

Using degrees Celsius for public forecast. Weather courtesy of forecast.io.

Closest aviation weather report (METAR) to Rambam Heliport

Report is more than 6 hours old.

Closest report is Haifa International Airport, 3.3 nm (6.1 km) ESE.

2024/06/21 12:50 (retrieved 18 hours ago)

LLHA 211250Z 33011KT CAVOK 30/23 Q1006

Closest aviation forecast (TAF) to Rambam Heliport

Closest forecast is Haifa International Airport, 3.3 nm (6.1 km) ESE.

2024/06/22 06:00 (retrieved 30 minutes ago)

TAF LLHA 220504Z 2206/2306 VRB04KT 9999 SCT022 BECMG 2207/2209 28012KT CAVOK BECMG 2215/2217 VRB04KT 9999 SCT017 BECMG 2219/2221 SCT025 TEMPO 2222/2305 17005KT BKN020 TX31/2212Z TN22/2304Z